Wetterdaten: Woche 05.11.18 - 11.11.18 (KW45)
Datum Zeit Temperatur Luftfeuchte Luftdruck Niederschlag Windrichtung Sonnenschein Solar Wind
05.11.2018 00:00 8,6 C 97 % 1009,7 hPa 0,0 l/m O-NO 0,00 h 0 W/m 7,1 km/h (2 Bft)
05.11.2018 01:00 8,4 C 97 % 1009,4 hPa 0,0 l/m O-NO 0,00 h 0 W/m 4,3 km/h (1 Bft)
05.11.2018 02:00 8,3 C 97 % 1009,0 hPa 0,0 l/m O-NO 0,00 h 0 W/m 3,8 km/h (1 Bft)
05.11.2018 03:00 8,2 C 98 % 1008,5 hPa 0,0 l/m O-NO 0,00 h 0 W/m 4,9 km/h (1 Bft)
05.11.2018 04:00 8,1 C 98 % 1008,5 hPa 0,0 l/m O-NO 0,00 h 0 W/m 3,7 km/h (1 Bft)
05.11.2018 05:00 7,9 C 98 % 1008,4 hPa 0,0 l/m O-NO 0,00 h 0 W/m 4,0 km/h (1 Bft)
05.11.2018 06:00 7,8 C 98 % 1008,2 hPa 0,0 l/m N 0,00 h 0 W/m 0,7 km/h (0 Bft)
05.11.2018 07:00 7,7 C 98 % 1008,2 hPa 0,0 l/m O-NO 0,00 h 12 W/m 0,5 km/h (0 Bft)
05.11.2018 08:00 7,7 C 98 % 1008,3 hPa 0,0 l/m O-NO 0,00 h 38 W/m 2,9 km/h (1 Bft)
05.11.2018 09:00 7,8 C 99 % 1008,1 hPa 0,0 l/m N 0,00 h 57 W/m 0,7 km/h (0 Bft)
05.11.2018 10:00 8,2 C 99 % 1008,0 hPa 0,0 l/m O-NO 0,00 h 100 W/m 4,5 km/h (1 Bft)
05.11.2018 11:00 9,1 C 98 % 1007,8 hPa 0,0 l/m O-NO 0,25 h 205 W/m 2,5 km/h (1 Bft)
05.11.2018 12:00 11,2 C 91 % 1007,1 hPa 0,0 l/m O-NO 0,58 h 365 W/m 4,1 km/h (1 Bft)
05.11.2018 13:00 13,4 C 83 % 1006,6 hPa 0,0 l/m O-NO 0,92 h 417 W/m 5,5 km/h (1 Bft)
05.11.2018 14:00 13,6 C 83 % 1006,5 hPa 0,0 l/m O-NO 0,42 h 188 W/m 5,4 km/h (1 Bft)
05.11.2018 15:00 12,4 C 88 % 1006,5 hPa 0,0 l/m NO 0,17 h 63 W/m 0,9 km/h (0 Bft)
05.11.2018 16:00 11,1 C 91 % 1006,5 hPa 0,0 l/m N 0,33 h 30 W/m 1,1 km/h (0 Bft)
05.11.2018 17:00 10,0 C 91 % 1006,6 hPa 0,0 l/m NO 0,00 h 0 W/m 3,1 km/h (1 Bft)
05.11.2018 18:00 8,9 C 92 % 1007,1 hPa 0,0 l/m N 0,00 h 0 W/m 0,9 km/h (0 Bft)
05.11.2018 19:00 8,0 C 93 % 1007,3 hPa 0,0 l/m N 0,00 h 0 W/m 0,0 km/h (0 Bft)
05.11.2018 20:00 7,3 C 94 % 1007,6 hPa 0,0 l/m N 0,00 h 0 W/m 0,0 km/h (0 Bft)
05.11.2018 21:00 6,4 C 94 % 1007,9 hPa 0,0 l/m N 0,00 h 0 W/m 0,0 km/h (0 Bft)
05.11.2018 22:00 5,5 C 94 % 1008,1 hPa 0,0 l/m N 0,00 h 0 W/m 0,0 km/h (0 Bft)
05.11.2018 23:00 4,7 C 95 % 1007,9 hPa 0,0 l/m N 0,00 h 0 W/m 0,3 km/h (0 Bft)
06.11.2018 00:00 4,2 C 95 % 1008,0 hPa 0,0 l/m N 0,00 h 0 W/m 0,0 km/h (0 Bft)
06.11.2018 01:00 3,7 C 96 % 1007,6 hPa 0,0 l/m N 0,00 h 0 W/m 0,0 km/h (0 Bft)
06.11.2018 02:00 3,6 C 96 % 1007,4 hPa 0,0 l/m N 0,00 h 0 W/m 0,9 km/h (0 Bft)
06.11.2018 03:00 3,7 C 97 % 1007,1 hPa 0,0 l/m NO 0,00 h 0 W/m 1,2 km/h (1 Bft)
06.11.2018 04:00 4,0 C 97 % 1007,0 hPa 0,0 l/m NO 0,00 h 0 W/m 3,3 km/h (1 Bft)
06.11.2018 05:00 3,8 C 97 % 1007,0 hPa 0,0 l/m NO 0,00 h 0 W/m 3,5 km/h (1 Bft)
06.11.2018 06:00 3,4 C 97 % 1007,0 hPa 0,0 l/m N 0,00 h 0 W/m 0,8 km/h (0 Bft)
06.11.2018 07:00 3,3 C 97 % 1007,3 hPa 0,0 l/m NO 0,17 h 19 W/m 3,2 km/h (1 Bft)
06.11.2018 08:00 4,0 C 98 % 1007,5 hPa 0,0 l/m NO 0,67 h 123 W/m 4,7 km/h (1 Bft)
06.11.2018 09:00 5,2 C 97 % 1007,4 hPa 0,0 l/m NO 0,00 h 139 W/m 5,8 km/h (2 Bft)
06.11.2018 10:00 6,7 C 97 % 1007,2 hPa 0,0 l/m NO 0,25 h 202 W/m 3,3 km/h (1 Bft)
06.11.2018 11:00 8,9 C 91 % 1006,8 hPa 0,0 l/m NO 0,83 h 272 W/m 3,5 km/h (1 Bft)
06.11.2018 12:00 10,1 C 89 % 1006,3 hPa 0,0 l/m NO 0,00 h 222 W/m 5,9 km/h (2 Bft)
06.11.2018 13:00 10,8 C 85 % 1005,9 hPa 0,0 l/m NO 0,00 h 184 W/m 5,1 km/h (1 Bft)
06.11.2018 14:00 10,7 C 86 % 1005,7 hPa 0,0 l/m NO 0,00 h 119 W/m 3,6 km/h (1 Bft)
06.11.2018 15:00 10,4 C 89 % 1005,7 hPa 0,0 l/m NO 0,00 h 66 W/m 1,5 km/h (1 Bft)
06.11.2018 16:00 9,4 C 92 % 1006,0 hPa 0,0 l/m NO 0,00 h 18 W/m 5,2 km/h (1 Bft)
06.11.2018 17:00 8,8 C 93 % 1006,8 hPa 0,0 l/m N 0,00 h 0 W/m 3,2 km/h (1 Bft)
06.11.2018 18:00 8,6 C 93 % 1007,9 hPa 0,0 l/m N 0,00 h 0 W/m 3,9 km/h (1 Bft)
06.11.2018 19:00 8,6 C 94 % 1008,9 hPa 0,0 l/m NW 0,00 h 0 W/m 5,0 km/h (1 Bft)
06.11.2018 20:00 8,0 C 93 % 1009,6 hPa 0,0 l/m N 0,00 h 0 W/m 0,0 km/h (0 Bft)
06.11.2018 21:00 7,2 C 93 % 1010,3 hPa 0,0 l/m N 0,00 h 0 W/m 0,0 km/h (0 Bft)
06.11.2018 22:00 6,6 C 93 % 1010,7 hPa 0,0 l/m N 0,00 h 0 W/m 0,0 km/h (0 Bft)
06.11.2018 23:00 6,2 C 94 % 1010,9 hPa 0,0 l/m N 0,00 h 0 W/m 0,0 km/h (0 Bft)
07.11.2018 00:00 5,9 C 95 % 1011,0 hPa 0,0 l/m N 0,00 h 0 W/m 0,0 km/h (0 Bft)
07.11.2018 01:00 5,5 C 95 % 1011,0 hPa 0,0 l/m N 0,00 h 0 W/m 0,0 km/h (0 Bft)
07.11.2018 02:00 4,9 C 95 % 1010,9 hPa 0,0 l/m N 0,00 h 0 W/m 0,0 km/h (0 Bft)
07.11.2018 03:00 4,3 C 95 % 1010,4 hPa 0,0 l/m N 0,00 h 0 W/m 0,0 km/h (0 Bft)
07.11.2018 04:00 4,1 C 96 % 1010,1 hPa 0,0 l/m NW 0,00 h 0 W/m 2,9 km/h (1 Bft)
07.11.2018 05:00 4,9 C 97 % 1010,1 hPa 0,0 l/m NW 0,00 h 0 W/m 5,0 km/h (1 Bft)
07.11.2018 06:00 4,6 C 97 % 1010,2 hPa 0,2 l/m NW 0,00 h 0 W/m 2,1 km/h (1 Bft)
07.11.2018 07:00 4,2 C 97 % 1010,2 hPa 0,0 l/m N 0,00 h 19 W/m 0,8 km/h (0 Bft)
07.11.2018 08:00 4,4 C 97 % 1010,2 hPa 0,0 l/m N 0,00 h 60 W/m 0,0 km/h (0 Bft)
07.11.2018 09:00 5,7 C 98 % 1010,1 hPa 0,0 l/m NW 0,00 h 88 W/m 1,1 km/h (0 Bft)
07.11.2018 10:00 6,6 C 98 % 1010,0 hPa 0,0 l/m NW 0,50 h 240 W/m 4,3 km/h (1 Bft)
07.11.2018 11:00 9,0 C 96 % 1010,0 hPa 0,0 l/m NW 1,00 h 417 W/m 5,2 km/h (1 Bft)
07.11.2018 12:00 11,6 C 88 % 1010,0 hPa 0,0 l/m NW 1,00 h 428 W/m 5,2 km/h (1 Bft)
07.11.2018 13:00 13,2 C 81 % 1009,9 hPa 0,0 l/m NW 1,00 h 384 W/m 1,7 km/h (1 Bft)
07.11.2018 14:00 13,9 C 77 % 1010,0 hPa 0,0 l/m NW 1,00 h 293 W/m 3,9 km/h (1 Bft)
07.11.2018 15:00 13,5 C 79 % 1010,3 hPa 0,0 l/m N 0,92 h 138 W/m 0,5 km/h (0 Bft)
07.11.2018 16:00 11,7 C 85 % 1011,0 hPa 0,0 l/m NW 0,08 h 21 W/m 1,9 km/h (1 Bft)
07.11.2018 17:00 10,4 C 88 % 1011,9 hPa 0,0 l/m NW 0,00 h 0 W/m 2,7 km/h (1 Bft)
07.11.2018 18:00 9,1 C 88 % 1013,0 hPa 0,0 l/m N 0,00 h 0 W/m 0,0 km/h (0 Bft)
07.11.2018 19:00 7,6 C 89 % 1013,7 hPa 0,0 l/m N 0,00 h 0 W/m 0,0 km/h (0 Bft)
07.11.2018 20:00 6,7 C 91 % 1014,3 hPa 0,0 l/m N 0,00 h 0 W/m 0,0 km/h (0 Bft)
07.11.2018 21:00 6,4 C 93 % 1015,1 hPa 0,0 l/m N 0,00 h 0 W/m 0,0 km/h (0 Bft)
07.11.2018 22:00 6,6 C 94 % 1015,6 hPa 0,0 l/m N 0,00 h 0 W/m 0,0 km/h (0 Bft)
07.11.2018 23:00 7,0 C 95 % 1016,2 hPa 0,0 l/m N 0,00 h 0 W/m 0,0 km/h (0 Bft)
08.11.2018 00:00 7,0 C 96 % 1016,4 hPa 0,2 l/m N 0,00 h 0 W/m 0,0 km/h (0 Bft)
08.11.2018 01:00 6,9 C 96 % 1016,9 hPa 0,0 l/m N 0,00 h 0 W/m 0,0 km/h (0 Bft)
08.11.2018 02:00 7,2 C 97 % 1017,4 hPa 0,0 l/m N 0,00 h 0 W/m 0,0 km/h (0 Bft)
08.11.2018 03:00 7,4 C 97 % 1018,3 hPa 0,0 l/m N 0,00 h 0 W/m 0,0 km/h (0 Bft)
08.11.2018 04:00 7,4 C 97 % 1019,0 hPa 0,0 l/m N 0,00 h 0 W/m 0,0 km/h (0 Bft)
08.11.2018 05:00 7,3 C 97 % 1019,5 hPa 0,2 l/m N 0,00 h 0 W/m 0,0 km/h (0 Bft)
08.11.2018 06:00 7,5 C 98 % 1019,9 hPa 0,0 l/m NW 0,00 h 0 W/m 4,6 km/h (1 Bft)
08.11.2018 07:00 7,9 C 98 % 1020,4 hPa 0,0 l/m W 0,00 h 8 W/m 5,4 km/h (1 Bft)
08.11.2018 08:00 8,1 C 98 % 1020,8 hPa 0,2 l/m N 0,00 h 32 W/m 0,4 km/h (0 Bft)
08.11.2018 09:00 8,6 C 98 % 1020,9 hPa 0,0 l/m N 0,00 h 60 W/m 0,5 km/h (0 Bft)
08.11.2018 10:00 8,9 C 99 % 1020,8 hPa 0,0 l/m N 0,00 h 53 W/m 0,0 km/h (0 Bft)
08.11.2018 11:00 9,2 C 99 % 1020,6 hPa 0,0 l/m W 0,00 h 89 W/m 3,1 km/h (1 Bft)
08.11.2018 12:00 9,8 C 97 % 1019,9 hPa 0,0 l/m NW 0,00 h 132 W/m 8,8 km/h (2 Bft)
08.11.2018 13:00 10,3 C 94 % 1018,9 hPa 0,0 l/m NO 0,00 h 141 W/m 12,4 km/h (3 Bft)
08.11.2018 14:00 10,3 C 93 % 1018,4 hPa 0,0 l/m O-NO 0,00 h 60 W/m 12,7 km/h (3 Bft)
08.11.2018 15:00 10,1 C 93 % 1018,2 hPa 0,0 l/m NO 0,00 h 24 W/m 10,8 km/h (2 Bft)
08.11.2018 16:00 9,8 C 94 % 1017,9 hPa 0,0 l/m NO 0,00 h 9 W/m 11,2 km/h (2 Bft)
08.11.2018 17:00 9,6 C 95 % 1017,5 hPa 0,0 l/m NO 0,00 h 0 W/m 11,3 km/h (2 Bft)
08.11.2018 18:00 9,6 C 95 % 1017,4 hPa 0,0 l/m NO 0,00 h 0 W/m 7,9 km/h (2 Bft)
08.11.2018 19:00 9,6 C 95 % 1017,2 hPa 0,0 l/m NO 0,00 h 0 W/m 3,5 km/h (1 Bft)
08.11.2018 20:00 9,6 C 95 % 1017,0 hPa 0,0 l/m NO 0,00 h 0 W/m 5,2 km/h (1 Bft)
08.11.2018 21:00 9,5 C 95 % 1016,7 hPa 0,0 l/m N 0,00 h 0 W/m 0,5 km/h (0 Bft)
08.11.2018 22:00 9,3 C 95 % 1015,9 hPa 0,0 l/m N 0,00 h 0 W/m 1,3 km/h (1 Bft)
08.11.2018 23:00 8,9 C 95 % 1015,5 hPa 0,0 l/m N 0,00 h 0 W/m 0,5 km/h (0 Bft)
09.11.2018 00:00 8,2 C 95 % 1015,3 hPa 0,0 l/m N 0,00 h 0 W/m 0,0 km/h (0 Bft)
09.11.2018 01:00 7,3 C 95 % 1015,2 hPa 0,0 l/m N 0,00 h 0 W/m 0,0 km/h (0 Bft)
09.11.2018 02:00 7,0 C 96 % 1015,3 hPa 0,0 l/m N 0,00 h 0 W/m 0,0 km/h (0 Bft)
09.11.2018 03:00 7,4 C 97 % 1015,2 hPa 0,0 l/m N 0,00 h 0 W/m 0,0 km/h (0 Bft)
09.11.2018 04:00 7,3 C 97 % 1015,3 hPa 0,0 l/m N 0,00 h 0 W/m 0,0 km/h (0 Bft)
09.11.2018 05:00 7,2 C 97 % 1015,5 hPa 0,0 l/m N 0,00 h 0 W/m 0,0 km/h (0 Bft)
09.11.2018 06:00 7,3 C 98 % 1015,6 hPa 0,0 l/m N 0,00 h 0 W/m 0,0 km/h (0 Bft)
09.11.2018 07:00 7,5 C 98 % 1016,0 hPa 0,0 l/m N 0,00 h 7 W/m 0,0 km/h (0 Bft)
09.11.2018 08:00 7,7 C 98 % 1016,1 hPa 0,0 l/m N 0,00 h 24 W/m 0,0 km/h (0 Bft)
09.11.2018 09:00 8,1 C 98 % 1015,9 hPa 0,0 l/m N 0,00 h 49 W/m 0,3 km/h (0 Bft)
09.11.2018 10:00 8,2 C 98 % 1015,6 hPa 0,0 l/m NO 0,00 h 75 W/m 1,2 km/h (1 Bft)
09.11.2018 11:00 8,6 C 96 % 1015,3 hPa 0,0 l/m N 0,00 h 149 W/m 1,7 km/h (1 Bft)
09.11.2018 12:00 9,6 C 92 % 1014,8 hPa 0,0 l/m NO 0,67 h 257 W/m 2,8 km/h (1 Bft)
09.11.2018 13:00 10,4 C 89 % 1014,0 hPa 0,0 l/m NO 0,75 h 262 W/m 2,7 km/h (1 Bft)
09.11.2018 14:00 11,3 C 87 % 1013,5 hPa 0,0 l/m NO 0,33 h 161 W/m 6,7 km/h (2 Bft)
09.11.2018 15:00 11,0 C 88 % 1013,1 hPa 0,0 l/m NO 0,00 h 80 W/m 4,1 km/h (1 Bft)
09.11.2018 16:00 10,1 C 91 % 1012,9 hPa 0,0 l/m NO 0,25 h 25 W/m 5,3 km/h (1 Bft)
09.11.2018 17:00 9,3 C 92 % 1013,0 hPa 0,0 l/m NO 0,00 h 0 W/m 4,7 km/h (1 Bft)
09.11.2018 18:00 8,3 C 93 % 1012,8 hPa 0,0 l/m NO 0,00 h 0 W/m 3,1 km/h (1 Bft)
09.11.2018 19:00 8,1 C 95 % 1012,8 hPa 0,0 l/m NO 0,00 h 0 W/m 4,0 km/h (1 Bft)
09.11.2018 20:00 8,2 C 96 % 1012,9 hPa 0,0 l/m O-NO 0,00 h 0 W/m 5,2 km/h (1 Bft)
09.11.2018 21:00 7,9 C 96 % 1012,6 hPa 0,0 l/m O-NO 0,00 h 0 W/m 3,1 km/h (1 Bft)
09.11.2018 22:00 7,8 C 96 % 1012,2 hPa 0,0 l/m O-NO 0,00 h 0 W/m 1,3 km/h (1 Bft)
09.11.2018 23:00 7,6 C 97 % 1011,9 hPa 0,0 l/m N 0,00 h 0 W/m 0,0 km/h (0 Bft)
10.11.2018 00:00 7,5 C 97 % 1011,4 hPa 0,0 l/m N 0,00 h 0 W/m 0,0 km/h (0 Bft)
10.11.2018 01:00 7,4 C 97 % 1011,1 hPa 0,0 l/m N 0,00 h 0 W/m 0,0 km/h (0 Bft)
10.11.2018 02:00 7,2 C 97 % 1010,8 hPa 0,0 l/m N 0,00 h 0 W/m 0,5 km/h (0 Bft)
10.11.2018 03:00 7,0 C 97 % 1010,3 hPa 0,0 l/m N 0,00 h 0 W/m 0,0 km/h (0 Bft)
10.11.2018 04:00 6,7 C 98 % 1010,0 hPa 0,0 l/m N 0,00 h 0 W/m 0,0 km/h (0 Bft)
10.11.2018 05:00 6,5 C 98 % 1009,7 hPa 0,0 l/m N 0,00 h 0 W/m 0,0 km/h (0 Bft)
10.11.2018 06:00 6,3 C 98 % 1009,4 hPa 0,0 l/m N 0,00 h 0 W/m 0,0 km/h (0 Bft)
10.11.2018 07:00 6,2 C 98 % 1009,3 hPa 0,0 l/m N 0,00 h 12 W/m 0,0 km/h (0 Bft)
10.11.2018 08:00 6,2 C 98 % 1009,4 hPa 0,0 l/m N 0,00 h 55 W/m 0,4 km/h (0 Bft)
10.11.2018 09:00 6,4 C 98 % 1009,3 hPa 0,0 l/m O-NO 0,00 h 110 W/m 1,5 km/h (1 Bft)
10.11.2018 10:00 6,9 C 99 % 1009,6 hPa 0,0 l/m O-NO 0,00 h 125 W/m 4,4 km/h (1 Bft)
10.11.2018 11:00 7,6 C 97 % 1009,5 hPa 0,0 l/m NO 0,08 h 181 W/m 3,3 km/h (1 Bft)
10.11.2018 12:00 9,0 C 94 % 1009,1 hPa 0,0 l/m O-NO 0,67 h 356 W/m 4,0 km/h (1 Bft)
10.11.2018 13:00 10,2 C 88 % 1008,8 hPa 0,0 l/m S 1,00 h 352 W/m 8,6 km/h (2 Bft)
10.11.2018 14:00 9,8 C 89 % 1008,5 hPa 0,0 l/m S 1,00 h 251 W/m 7,4 km/h (2 Bft)
10.11.2018 15:00 9,0 C 91 % 1008,4 hPa 0,0 l/m S 0,25 h 85 W/m 2,4 km/h (1 Bft)
10.11.2018 16:00 7,9 C 94 % 1008,6 hPa 0,0 l/m N 0,00 h 20 W/m 0,0 km/h (0 Bft)
10.11.2018 17:00 7,2 C 95 % 1008,9 hPa 0,0 l/m N 0,00 h 0 W/m 0,0 km/h (0 Bft)
10.11.2018 18:00 6,7 C 95 % 1009,0 hPa 0,0 l/m N 0,00 h 0 W/m 0,0 km/h (0 Bft)
10.11.2018 19:00 6,8 C 96 % 1009,2 hPa 0,0 l/m N 0,00 h 0 W/m 0,0 km/h (0 Bft)
10.11.2018 20:00 6,8 C 96 % 1009,1 hPa 0,0 l/m N 0,00 h 0 W/m 0,0 km/h (0 Bft)
10.11.2018 21:00 6,7 C 97 % 1009,0 hPa 0,0 l/m N 0,00 h 0 W/m 0,0 km/h (0 Bft)
10.11.2018 22:00 6,5 C 97 % 1009,1 hPa 0,0 l/m S-SW 0,00 h 0 W/m 3,2 km/h (1 Bft)
10.11.2018 23:00 6,5 C 97 % 1009,5 hPa 0,0 l/m N 0,00 h 0 W/m 0,0 km/h (0 Bft)
11.11.2018 00:00 6,7 C 98 % 1009,7 hPa 0,0 l/m N 0,00 h 0 W/m 0,0 km/h (0 Bft)
11.11.2018 01:00 6,6 C 98 % 1010,1 hPa 0,0 l/m N 0,00 h 0 W/m 0,0 km/h (0 Bft)
11.11.2018 02:00 6,5 C 98 % 1010,6 hPa 0,0 l/m N 0,00 h 0 W/m 0,3 km/h (0 Bft)
11.11.2018 03:00 6,6 C 98 % 1010,8 hPa 0,2 l/m S-SW 0,00 h 0 W/m 3,8 km/h (1 Bft)
11.11.2018 04:00 6,8 C 98 % 1010,5 hPa 0,0 l/m S-SW 0,00 h 0 W/m 7,4 km/h (2 Bft)
11.11.2018 05:00 6,3 C 98 % 1010,5 hPa 0,0 l/m N 0,00 h 0 W/m 0,0 km/h (0 Bft)
11.11.2018 06:00 6,4 C 99 % 1010,7 hPa 0,0 l/m N 0,00 h 0 W/m 0,0 km/h (0 Bft)
11.11.2018 07:00 6,5 C 98 % 1011,5 hPa 0,0 l/m N 0,00 h 8 W/m 0,0 km/h (0 Bft)
11.11.2018 08:00 7,0 C 99 % 1012,5 hPa 0,2 l/m N 0,00 h 28 W/m 0,0 km/h (0 Bft)
11.11.2018 09:00 7,5 C 99 % 1013,6 hPa 0,4 l/m S-SW 0,00 h 38 W/m 0,9 km/h (0 Bft)
11.11.2018 10:00 8,5 C 99 % 1014,2 hPa 0,4 l/m S-SW 0,00 h 117 W/m 2,3 km/h (1 Bft)
11.11.2018 11:00 9,7 C 99 % 1013,9 hPa 0,0 l/m S-SW 0,08 h 180 W/m 9,0 km/h (2 Bft)
11.11.2018 12:00 10,6 C 98 % 1013,7 hPa 0,0 l/m S-SW 0,00 h 151 W/m 12,2 km/h (2 Bft)
11.11.2018 13:00 12,5 C 93 % 1013,4 hPa 0,0 l/m S-SW 0,58 h 277 W/m 8,4 km/h (2 Bft)
11.11.2018 14:00 14,1 C 85 % 1013,5 hPa 0,0 l/m SW 1,00 h 277 W/m 8,9 km/h (2 Bft)
11.11.2018 15:00 13,6 C 84 % 1013,9 hPa 0,0 l/m SW 0,58 h 117 W/m 6,6 km/h (2 Bft)
11.11.2018 16:00 11,7 C 89 % 1013,7 hPa 0,0 l/m N 0,00 h 18 W/m 0,0 km/h (0 Bft)
11.11.2018 17:00 10,1 C 91 % 1013,4 hPa 0,0 l/m N 0,00 h 0 W/m 0,0 km/h (0 Bft)
11.11.2018 18:00 8,8 C 92 % 1014,1 hPa 0,0 l/m N 0,00 h 0 W/m 0,0 km/h (0 Bft)
11.11.2018 19:00 7,9 C 93 % 1014,8 hPa 0,0 l/m SW 0,00 h 0 W/m 3,2 km/h (1 Bft)
11.11.2018 20:00 8,0 C 95 % 1015,7 hPa 0,0 l/m SW 0,00 h 0 W/m 3,2 km/h (1 Bft)
11.11.2018 21:00 7,6 C 95 % 1016,4 hPa 0,0 l/m N 0,00 h 0 W/m 0,0 km/h (0 Bft)
11.11.2018 22:00 6,8 C 96 % 1016,5 hPa 0,0 l/m N 0,00 h 0 W/m 0,0 km/h (0 Bft)
11.11.2018 23:00 6,2 C 96 % 1016,5 hPa 0,2 l/m N 0,00 h 0 W/m 0,0 km/h (0 Bft)
Min-Datum _ 06.11.18 07.11.18 06.11.18 - - - - 05.11.18
_ Min-Zeit 06:45 14:30 15:00 - - - - 00:20
Minimum _ 3,2 C 76 % 1005,5 hPa - - - - 0,0 km/h (0 Bft)
Max-Datum _ 05.11.18 07.11.18 08.11.18 11.11.18 - 05.11.18 10.11.18 08.11.18
_ Max-Zeit 14:00 05:45 09:35 09:25 - 11:45 12:30 13:35
Maximum _ 14,4 C 100 % 1021,1 hPa 0,4 l/m - 0,08 h 548 W/m 19,3 km/h
NO (3 Bft)
Durchschnitt _ 8,0 C 95 % 1011,7 hPa #2,2 l/m NO #17:20 h 134 W/m 2,4 km/h (1 Bft)